createdAt,value
2023-02-26T00:01:19.405Z,99822.53
2023-02-26T00:04:08.717Z,99808.09
2023-02-26T00:06:58.606Z,99816.91
2023-02-26T00:09:48.110Z,99821.31
2023-02-26T00:12:37.588Z,99818.31
2023-02-26T00:15:26.923Z,99823.88
2023-02-26T00:18:17.465Z,99780.06
2023-02-26T00:21:06.812Z,99815.19
2023-02-26T00:23:55.369Z,99814.97
2023-02-26T00:26:43.871Z,99817.47
2023-02-26T00:29:32.812Z,99819.22
2023-02-26T00:32:21.801Z,99819.53
2023-02-26T00:35:14.869Z,99811.69
2023-02-26T00:38:05.685Z,99823.44
2023-02-26T00:40:55.611Z,99815.16
2023-02-26T00:43:44.618Z,99821.25
2023-02-26T00:46:40.601Z,99816.47
2023-02-26T00:49:36.870Z,99825.06
2023-02-26T00:52:32.552Z,99820.19
2023-02-26T00:55:21.107Z,99825.38
2023-02-26T00:58:09.690Z,99814.97
2023-02-26T01:00:58.184Z,99828.84
2023-02-26T01:03:47.172Z,99823.47
2023-02-26T01:06:36.932Z,99787.03
2023-02-26T01:09:28.242Z,99832.53
2023-02-26T01:12:17.869Z,99819.44
2023-02-26T01:15:08.285Z,99819.63
2023-02-26T01:18:02.559Z,99833.53
2023-02-26T01:20:55.737Z,99833.16
2023-02-26T01:23:47.699Z,99801.44
2023-02-26T01:26:37.835Z,99784.72
2023-02-26T01:29:26.765Z,99828.31
2023-02-26T01:32:18.734Z,99780.63
2023-02-26T01:35:14.709Z,99822.81
2023-02-26T01:38:05.956Z,99821.88
2023-02-26T01:41:10.018Z,99828.75
2023-02-26T01:44:04.628Z,99825.81
2023-02-26T01:47:06.210Z,99832.38
2023-02-26T01:49:55.203Z,99801.13
2023-02-26T01:53:17.933Z,99831.22
2023-02-26T01:56:13.886Z,99828.28
2023-02-26T01:59:06.030Z,99832.63
2023-02-26T02:01:58.045Z,99828.94
2023-02-26T02:04:48.229Z,99834.78
2023-02-26T02:07:36.717Z,99821.84
2023-02-26T02:10:25.222Z,99836.78
2023-02-26T02:13:26.873Z,99824.75
2023-02-26T02:16:24.172Z,99832.25
2023-02-26T02:19:33.172Z,99833.81
2023-02-26T02:22:37.243Z,99836.88
2023-02-26T02:25:41.596Z,99807.66
2023-02-26T02:28:38.660Z,99802.69
2023-02-26T02:31:30.953Z,99841.63
2023-02-26T02:34:23.384Z,99835.25
2023-02-26T02:37:17.364Z,99844.44
2023-02-26T02:40:09.028Z,99756.50
2023-02-26T02:43:00.753Z,99847.78
2023-02-26T02:45:51.754Z,99842.50
2023-02-26T02:48:45.098Z,99845.56
2023-02-26T02:51:35.508Z,99834.25
2023-02-26T02:54:27.536Z,99840.31
2023-02-26T02:57:19.468Z,99841.31
2023-02-26T03:00:11.357Z,99828.41
2023-02-26T03:03:03.808Z,99838.25
2023-02-26T03:05:53.650Z,99816.78
2023-02-26T03:08:43.250Z,99809.44
2023-02-26T03:11:32.180Z,99851.59
2023-02-26T03:14:20.826Z,99854.38
2023-02-26T03:17:19.267Z,99834.81
2023-02-26T03:20:18.354Z,99859.91
2023-02-26T03:23:12.845Z,99860.31
2023-02-26T03:26:06.385Z,99870.28
2023-02-26T03:28:57.350Z,99817.34
2023-02-26T03:31:56.148Z,99869.72
2023-02-26T03:34:48.072Z,99883.91
2023-02-26T03:37:40.581Z,99881.53
2023-02-26T03:40:33.523Z,99888.84
2023-02-26T03:43:26.184Z,99835.34
2023-02-26T03:46:16.808Z,99881.88
2023-02-26T03:49:08.347Z,99860.66
2023-02-26T03:51:58.325Z,99891.03
2023-02-26T03:54:49.824Z,99885.63
2023-02-26T03:57:39.882Z,99900.75
2023-02-26T04:00:28.779Z,99889.78
2023-02-26T04:03:22.169Z,99875.03
2023-02-26T04:06:10.619Z,99906.66
2023-02-26T04:08:59.105Z,99911.50
2023-02-26T04:11:48.310Z,99848.94
2023-02-26T04:14:38.521Z,99914.25
2023-02-26T04:17:27.065Z,99906.47
2023-02-26T04:20:15.793Z,99910.78
2023-02-26T04:23:04.233Z,99920.47
2023-02-26T04:25:52.920Z,99913.81
2023-02-26T04:28:41.766Z,99908.28
2023-02-26T04:31:31.786Z,99923.75
2023-02-26T04:34:20.458Z,99919.84
2023-02-26T04:37:09.001Z,99922.16
2023-02-26T04:39:57.477Z,99920.75
2023-02-26T04:42:47.489Z,99926.03
2023-02-26T04:45:36.081Z,99930.63
2023-02-26T04:48:26.316Z,99925.16
2023-02-26T04:51:15.614Z,99941.16
2023-02-26T04:54:04.169Z,99936.22
2023-02-26T04:56:52.610Z,99948.69
2023-02-26T04:59:41.115Z,99940.66
2023-02-26T05:02:29.582Z,99946.19
2023-02-26T05:05:19.463Z,99946.59
2023-02-26T05:08:07.971Z,99946.19
2023-02-26T05:10:56.475Z,99931.50
2023-02-26T05:13:44.953Z,99952.00
2023-02-26T05:16:33.550Z,99954.72
2023-02-26T05:19:22.309Z,99961.00
2023-02-26T05:22:12.376Z,99924.16
2023-02-26T05:25:00.844Z,99965.94
2023-02-26T05:27:49.972Z,99974.72
2023-02-26T05:30:38.529Z,99968.00
2023-02-26T05:33:27.296Z,99976.97
2023-02-26T05:36:16.096Z,99981.97
2023-02-26T05:39:05.996Z,99977.78
2023-02-26T05:41:55.456Z,99940.97
2023-02-26T05:44:43.942Z,99985.53
2023-02-26T05:47:32.564Z,99994.38
2023-02-26T05:50:21.246Z,99986.50
2023-02-26T05:53:09.851Z,100000.53
2023-02-26T05:55:59.845Z,99981.97
2023-02-26T05:58:48.364Z,99995.41
2023-02-26T06:01:38.216Z,99997.47
2023-02-26T06:04:26.758Z,100007.75
2023-02-26T06:07:15.331Z,100013.13
2023-02-26T06:10:03.971Z,100023.50
2023-02-26T06:12:53.780Z,99988.75
2023-02-26T06:15:42.299Z,100022.09
2023-02-26T06:18:32.213Z,100025.31
2023-02-26T06:21:20.724Z,100029.25
2023-02-26T06:24:09.455Z,100004.16
2023-02-26T06:26:57.939Z,100039.09
2023-02-26T06:29:47.908Z,100043.25
2023-02-26T06:32:36.498Z,100052.78
2023-02-26T06:35:25.083Z,100062.91
2023-02-26T06:38:13.849Z,100068.78
2023-02-26T06:41:02.381Z,100071.94
2023-02-26T06:43:50.840Z,100074.25
2023-02-26T06:46:40.677Z,100084.66
2023-02-26T06:49:29.137Z,100091.84
2023-02-26T06:52:17.595Z,100096.75
2023-02-26T06:55:06.783Z,100094.75
2023-02-26T06:57:55.489Z,100081.66
2023-02-26T07:00:44.000Z,100089.16
2023-02-26T07:03:33.898Z,100114.66
2023-02-26T07:06:27.679Z,100099.28
2023-02-26T07:09:16.757Z,100122.91
2023-02-26T07:12:07.254Z,100113.75
2023-02-26T07:14:55.772Z,100124.91
2023-02-26T07:17:44.559Z,100130.53
2023-02-26T07:20:34.356Z,100122.44
2023-02-26T07:23:22.881Z,100138.75
2023-02-26T07:26:11.474Z,100094.63
2023-02-26T07:29:00.038Z,100120.34
2023-02-26T07:31:48.702Z,100151.63
2023-02-26T07:34:37.311Z,100131.81
2023-02-26T07:37:27.406Z,100128.28
2023-02-26T07:40:16.232Z,100147.91
2023-02-26T07:43:04.760Z,100151.19
2023-02-26T07:45:54.672Z,100156.44
2023-02-26T07:48:43.570Z,100152.66
2023-02-26T07:51:32.651Z,100146.19
2023-02-26T07:54:22.472Z,100154.09
2023-02-26T07:57:10.910Z,100152.16
2023-02-26T07:59:59.385Z,100145.81
2023-02-26T08:02:47.834Z,100156.53
2023-02-26T08:05:36.290Z,100161.34
2023-02-26T08:08:24.794Z,100158.16
2023-02-26T08:11:14.695Z,100171.91
2023-02-26T08:14:03.352Z,100164.72
2023-02-26T08:16:53.152Z,100183.44
2023-02-26T08:19:41.642Z,100159.03
2023-02-26T08:22:30.176Z,100170.53
2023-02-26T08:25:18.989Z,100180.00
2023-02-26T08:28:08.867Z,100175.53
2023-02-26T08:30:57.593Z,100175.13
2023-02-26T08:33:46.429Z,100168.84
2023-02-26T08:36:34.906Z,100179.28
2023-02-26T08:39:23.391Z,100178.84
2023-02-26T08:42:16.508Z,100184.84
2023-02-26T08:45:07.605Z,100185.97
2023-02-26T08:47:57.426Z,100189.56
2023-02-26T08:50:46.043Z,100201.22
2023-02-26T08:53:34.515Z,100204.03
2023-02-26T08:56:23.500Z,100208.06
2023-02-26T08:59:13.422Z,100190.53
2023-02-26T09:02:03.363Z,100209.41
2023-02-26T09:04:51.901Z,100213.72
2023-02-26T09:07:40.458Z,100188.16
2023-02-26T09:10:29.322Z,100222.31
2023-02-26T09:13:17.854Z,100211.66
2023-02-26T09:16:07.440Z,100225.81
2023-02-26T09:18:57.415Z,100226.47
2023-02-26T09:21:45.898Z,100223.56
2023-02-26T09:24:34.404Z,100224.28
2023-02-26T09:27:23.098Z,100232.97
2023-02-26T09:30:12.811Z,100230.06
2023-02-26T09:33:01.273Z,100236.69
2023-02-26T09:35:51.401Z,100230.09
2023-02-26T09:38:39.976Z,100231.34
2023-02-26T09:41:31.547Z,100232.78
2023-02-26T09:44:22.119Z,100254.94
2023-02-26T09:47:15.238Z,100247.94
2023-02-26T09:50:09.828Z,100227.94
2023-02-26T09:53:03.210Z,100250.16
2023-02-26T09:55:53.789Z,100244.34
2023-02-26T09:58:42.976Z,100251.16
2023-02-26T10:01:36.004Z,100261.59
2023-02-26T10:04:31.798Z,100265.53
2023-02-26T10:07:29.248Z,100262.72
2023-02-26T10:10:25.717Z,100262.72
2023-02-26T10:13:25.918Z,100218.41
2023-02-26T10:16:16.688Z,100265.44
2023-02-26T10:19:07.545Z,100263.88
2023-02-26T10:21:58.994Z,100263.03
2023-02-26T10:24:50.589Z,100264.00
2023-02-26T10:27:50.237Z,100268.75
2023-02-26T10:30:42.759Z,100272.63
2023-02-26T10:33:37.591Z,100275.38
2023-02-26T10:36:29.135Z,100275.31
2023-02-26T10:39:25.008Z,100271.81
2023-02-26T10:42:15.085Z,100284.25
2023-02-26T10:45:12.702Z,100277.03
2023-02-26T10:48:09.949Z,100289.25
2023-02-26T10:51:00.105Z,100287.75
2023-02-26T10:53:52.799Z,100289.22
2023-02-26T10:56:41.360Z,100286.38
2023-02-26T10:59:29.917Z,100293.69
2023-02-26T11:02:34.346Z,100276.25
2023-02-26T11:05:25.873Z,100286.81
2023-02-26T11:08:17.748Z,100282.47
2023-02-26T11:11:06.867Z,100273.53
2023-02-26T11:13:55.355Z,100292.53
2023-02-26T11:16:47.900Z,100263.16
2023-02-26T11:19:40.613Z,100297.31
2023-02-26T11:22:33.601Z,100300.34
2023-02-26T11:25:25.303Z,100295.88
2023-02-26T11:28:22.179Z,100294.41
2023-02-26T11:31:13.550Z,100300.97
2023-02-26T11:34:04.862Z,100307.19
2023-02-26T11:36:57.228Z,100306.13
2023-02-26T11:39:45.876Z,100303.69
2023-02-26T11:42:36.968Z,100309.63
2023-02-26T11:45:25.941Z,100318.72
2023-02-26T11:48:17.262Z,100311.56
2023-02-26T11:51:06.973Z,100276.44
2023-02-26T11:54:01.072Z,100299.81
2023-02-26T11:56:49.750Z,100319.78
2023-02-26T11:59:41.148Z,100316.72
2023-02-26T12:02:34.907Z,100318.66
2023-02-26T12:05:23.756Z,100301.25
2023-02-26T12:08:19.908Z,100293.84
2023-02-26T12:11:37.129Z,100310.06
2023-02-26T12:14:34.979Z,100310.13
2023-02-26T12:17:33.123Z,100241.50
2023-02-26T12:20:25.413Z,100305.75
2023-02-26T12:23:26.051Z,100294.53
2023-02-26T12:26:28.209Z,100301.59
2023-02-26T12:29:37.517Z,100309.78
2023-02-26T12:32:47.517Z,100312.28
2023-02-26T12:35:54.924Z,100302.34
2023-02-26T12:38:49.310Z,100306.91
2023-02-26T12:41:50.601Z,100306.78
2023-02-26T12:44:56.279Z,100313.03
2023-02-26T12:47:53.061Z,100300.59
2023-02-26T12:50:50.754Z,100309.31
2023-02-26T12:53:50.612Z,100320.72
2023-02-26T12:57:15.604Z,100307.06
2023-02-26T13:00:24.275Z,100314.13
2023-02-26T13:04:02.267Z,100316.22
2023-02-26T13:07:02.721Z,100327.75
2023-02-26T13:10:00.191Z,100309.97
2023-02-26T13:12:54.972Z,100316.63
2023-02-26T13:16:01.145Z,100314.41
2023-02-26T13:18:53.215Z,100317.53
2023-02-26T13:21:46.320Z,100310.31
2023-02-26T13:24:39.135Z,100311.75
2023-02-26T13:27:30.041Z,100317.66
2023-02-26T13:30:25.010Z,100326.53
2023-02-26T13:33:18.814Z,100313.22
2023-02-26T13:36:08.676Z,100324.72
2023-02-26T13:39:11.312Z,100320.16
2023-02-26T13:42:02.971Z,100323.56
2023-02-26T13:44:59.400Z,100318.22
2023-02-26T13:48:15.642Z,100310.56
2023-02-26T13:51:09.783Z,100320.84
2023-02-26T13:54:01.235Z,100323.66
2023-02-26T13:56:56.013Z,100314.69
2023-02-26T13:59:50.027Z,100318.72
2023-02-26T14:02:50.273Z,100319.88
2023-02-26T14:05:56.213Z,100322.22
2023-02-26T14:08:47.344Z,100304.97
2023-02-26T14:11:47.598Z,100296.88
2023-02-26T14:14:38.328Z,100335.06
2023-02-26T14:17:40.586Z,100333.72
2023-02-26T14:20:30.086Z,100335.56
2023-02-26T14:23:34.167Z,100348.72
2023-02-26T14:26:23.164Z,100348.97
2023-02-26T14:29:17.872Z,100356.44
2023-02-26T14:32:14.886Z,100365.97
2023-02-26T14:35:07.375Z,100363.13
2023-02-26T14:37:59.758Z,100370.22
2023-02-26T14:40:51.796Z,100356.81
2023-02-26T14:43:41.711Z,100362.97
2023-02-26T14:46:30.732Z,100378.56
2023-02-26T14:49:25.230Z,100368.13
2023-02-26T14:52:38.089Z,100370.63
2023-02-26T14:55:44.581Z,100362.06
2023-02-26T14:58:56.709Z,100363.41
2023-02-26T15:01:48.926Z,100361.91
2023-02-26T15:04:57.415Z,100382.16
2023-02-26T15:07:55.451Z,100379.81
2023-02-26T15:10:54.106Z,100370.50
2023-02-26T15:14:01.257Z,100383.31
2023-02-26T15:16:55.694Z,100379.38
2023-02-26T15:19:57.139Z,100390.59
2023-02-26T15:22:57.208Z,100405.22
2023-02-26T15:25:48.259Z,100381.97
2023-02-26T15:28:39.188Z,100395.69
2023-02-26T15:31:35.703Z,100401.34
2023-02-26T15:34:24.719Z,100265.34
2023-02-26T15:37:20.990Z,100403.19
2023-02-26T15:40:11.181Z,100403.19
2023-02-26T15:43:00.381Z,100362.72
2023-02-26T15:45:49.639Z,100411.50
2023-02-26T15:48:42.249Z,100406.78
2023-02-26T15:51:31.142Z,100409.00
2023-02-26T15:54:21.809Z,100384.63
2023-02-26T15:57:11.066Z,100420.13
2023-02-26T16:00:08.242Z,100420.13
2023-02-26T16:02:58.740Z,100429.97
2023-02-26T16:05:49.793Z,100435.34
2023-02-26T16:08:38.957Z,100434.97
2023-02-26T16:11:29.859Z,100441.78
2023-02-26T16:14:22.232Z,100436.78
2023-02-26T16:17:14.123Z,100444.28
2023-02-26T16:20:05.581Z,100446.94
2023-02-26T16:22:58.572Z,100442.78
2023-02-26T16:25:52.226Z,100436.56
2023-02-26T16:28:45.710Z,100451.91
2023-02-26T16:31:36.947Z,100450.25
2023-02-26T16:34:34.966Z,100385.75
2023-02-26T16:37:28.722Z,100453.44
2023-02-26T16:40:21.773Z,100479.63
2023-02-26T16:43:35.497Z,100441.09
2023-02-26T16:46:38.912Z,100471.28
2023-02-26T16:49:30.401Z,100491.56
2023-02-26T16:52:21.321Z,100494.22
2023-02-26T16:55:18.303Z,100498.13
2023-02-26T16:58:11.952Z,100504.03
2023-02-26T17:01:08.572Z,100512.97
2023-02-26T17:04:01.444Z,100509.28
2023-02-26T17:06:50.120Z,100509.59
2023-02-26T17:09:40.273Z,100493.72
2023-02-26T17:12:44.741Z,100527.69
2023-02-26T17:15:36.919Z,100434.53
2023-02-26T17:18:25.527Z,100524.13
2023-02-26T17:21:14.092Z,100526.16
2023-02-26T17:24:02.821Z,100533.16
2023-02-26T17:26:52.387Z,100541.44
2023-02-26T17:29:43.260Z,100532.06
2023-02-26T17:32:35.136Z,100543.22
2023-02-26T17:35:23.855Z,100546.13
2023-02-26T17:38:13.432Z,100561.06
2023-02-26T17:41:02.205Z,100556.72
2023-02-26T17:43:50.774Z,100551.41
2023-02-26T17:46:39.376Z,100561.94
2023-02-26T17:49:29.340Z,100566.94
2023-02-26T17:52:18.330Z,100569.59
2023-02-26T17:55:07.667Z,100572.66
2023-02-26T17:57:56.865Z,100575.47
2023-02-26T18:00:49.726Z,100576.84
2023-02-26T18:03:39.891Z,100536.22
2023-02-26T18:06:32.034Z,100561.97
2023-02-26T18:09:20.549Z,100576.06
2023-02-26T18:12:12.318Z,100582.31
2023-02-26T18:15:00.863Z,100585.25
2023-02-26T18:17:49.969Z,100575.94
2023-02-26T18:20:38.569Z,100596.97
2023-02-26T18:23:28.463Z,100609.25
2023-02-26T18:26:18.418Z,100505.34
2023-02-26T18:29:06.918Z,100603.69
2023-02-26T18:31:55.712Z,100611.47
2023-02-26T18:34:44.806Z,100598.25
2023-02-26T18:37:34.781Z,100605.63
2023-02-26T18:40:28.079Z,100600.34
2023-02-26T18:43:16.912Z,100604.94
2023-02-26T18:46:05.777Z,100602.00
2023-02-26T18:48:54.348Z,100609.81
2023-02-26T18:51:42.888Z,100615.09
2023-02-26T18:54:31.420Z,100612.31
2023-02-26T18:57:21.349Z,100620.94
2023-02-26T19:00:13.867Z,100571.47
2023-02-26T19:03:02.427Z,100617.06
2023-02-26T19:05:57.682Z,100620.09
2023-02-26T19:08:46.342Z,100611.03
2023-02-26T19:11:35.584Z,100633.72
2023-02-26T19:14:26.055Z,100619.66
2023-02-26T19:17:14.677Z,100628.03
2023-02-26T19:20:03.297Z,100615.91
2023-02-26T19:22:51.818Z,100625.38
2023-02-26T19:25:42.623Z,100593.75
2023-02-26T19:28:32.333Z,100624.69
2023-02-26T19:31:22.332Z,100627.28
2023-02-26T19:34:11.402Z,100630.91
2023-02-26T19:37:00.166Z,100629.94
2023-02-26T19:39:48.718Z,100630.88
2023-02-26T19:42:37.490Z,100626.97
2023-02-26T19:45:27.780Z,100643.56
2023-02-26T19:48:17.749Z,100644.53
2023-02-26T19:51:06.847Z,100642.47
2023-02-26T19:53:55.379Z,100642.69
2023-02-26T19:56:44.552Z,100599.47
2023-02-26T19:59:33.375Z,100657.16
2023-02-26T20:02:22.159Z,100653.06
2023-02-26T20:05:16.894Z,100663.38
2023-02-26T20:08:06.009Z,100665.78
2023-02-26T20:10:56.242Z,100672.31
2023-02-26T20:13:44.852Z,100666.44
2023-02-26T20:16:33.407Z,100674.28
2023-02-26T20:19:21.955Z,100682.56
2023-02-26T20:22:11.888Z,100678.91
2023-02-26T20:25:00.354Z,100682.53
2023-02-26T20:27:48.829Z,100686.00
2023-02-26T20:30:37.364Z,100639.66
2023-02-26T20:33:26.150Z,100698.25
2023-02-26T20:36:14.747Z,100701.16
2023-02-26T20:39:04.618Z,100705.56
2023-02-26T20:41:53.110Z,100708.59
2023-02-26T20:44:41.618Z,100704.19
2023-02-26T20:47:30.110Z,100646.72
2023-02-26T20:50:18.966Z,100699.56
2023-02-26T20:53:08.245Z,100679.47
2023-02-26T20:55:58.167Z,100716.44
2023-02-26T20:58:47.522Z,100638.44
2023-02-26T21:01:36.389Z,100710.06
2023-02-26T21:04:25.293Z,100714.38
2023-02-26T21:07:21.492Z,100718.38
2023-02-26T21:10:12.911Z,100715.09
2023-02-26T21:13:02.876Z,100717.50
2023-02-26T21:15:51.351Z,100707.69
2023-02-26T21:18:40.304Z,100699.78
2023-02-26T21:21:29.151Z,100713.78
2023-02-26T21:24:17.745Z,100703.47
2023-02-26T21:27:06.238Z,100704.53
2023-02-26T21:29:56.116Z,100703.56
2023-02-26T21:32:44.818Z,100701.16
2023-02-26T21:35:33.491Z,100712.44
2023-02-26T21:38:22.241Z,100718.50
2023-02-26T21:41:10.814Z,100657.34
2023-02-26T21:43:59.341Z,100723.53
2023-02-26T21:46:49.394Z,100726.19
2023-02-26T21:49:38.061Z,100723.53
2023-02-26T21:52:30.401Z,100732.38
2023-02-26T21:55:18.993Z,100720.63
2023-02-26T21:58:08.001Z,100718.69
2023-02-26T22:00:59.106Z,100721.59
2023-02-26T22:03:48.971Z,100718.03
2023-02-26T22:06:37.511Z,100718.75
2023-02-26T22:09:26.098Z,100711.47
2023-02-26T22:12:14.588Z,100716.38
2023-02-26T22:15:03.358Z,100709.78
2023-02-26T22:17:51.879Z,100716.84
2023-02-26T22:20:42.121Z,100715.63
2023-02-26T22:23:30.626Z,100711.69
2023-02-26T22:26:19.470Z,100671.84
2023-02-26T22:29:07.999Z,100708.19
2023-02-26T22:31:56.760Z,100696.38
2023-02-26T22:34:46.214Z,100713.75
2023-02-26T22:37:36.112Z,100722.25
2023-02-26T22:40:26.209Z,100615.03
2023-02-26T22:43:14.881Z,100722.59
2023-02-26T22:46:03.445Z,100721.66
2023-02-26T22:48:52.052Z,100711.66
2023-02-26T22:51:40.595Z,100671.97
2023-02-26T22:54:30.669Z,100722.94
2023-02-26T22:57:19.185Z,100727.84
2023-02-26T23:00:11.405Z,100732.22
2023-02-26T23:03:00.253Z,100727.06
2023-02-26T23:05:48.696Z,100725.75
2023-02-26T23:08:37.227Z,100728.41
2023-02-26T23:11:27.362Z,100724.91
2023-02-26T23:14:16.076Z,100720.50
2023-02-26T23:17:05.084Z,100726.75
2023-02-26T23:19:53.814Z,100613.91
2023-02-26T23:22:43.669Z,100730.47
2023-02-26T23:25:32.341Z,100713.38
2023-02-26T23:28:24.255Z,100722.44
2023-02-26T23:31:13.971Z,100715.28
2023-02-26T23:34:04.600Z,100714.41
2023-02-26T23:36:53.117Z,100708.28
2023-02-26T23:39:41.614Z,100713.69
2023-02-26T23:42:30.086Z,100717.66
2023-02-26T23:45:20.060Z,100717.66
2023-02-26T23:48:08.690Z,100716.19
2023-02-26T23:50:57.234Z,100712.28
2023-02-26T23:53:45.784Z,100714.22
2023-02-26T23:56:34.318Z,100717.47
2023-02-26T23:59:22.947Z,100723.19
